createdAt,value
2023-01-17T00:02:23.994Z,96932.19
2023-01-17T00:05:09.427Z,96912.47
2023-01-17T00:07:55.122Z,96930.66
2023-01-17T00:10:26.089Z,96913.50
2023-01-17T00:12:55.975Z,96932.53
2023-01-17T00:15:24.443Z,96923.09
2023-01-17T00:17:52.734Z,96927.63
2023-01-17T00:20:50.228Z,96957.03
2023-01-17T00:23:41.421Z,96943.56
2023-01-17T00:26:18.543Z,96956.50
2023-01-17T00:28:46.461Z,96958.94
2023-01-17T00:31:15.284Z,96955.66
2023-01-17T00:33:42.421Z,96967.69
2023-01-17T00:36:10.723Z,96966.97
2023-01-17T00:38:41.105Z,96967.78
2023-01-17T00:41:14.270Z,96962.59
2023-01-17T00:43:59.924Z,96964.41
2023-01-17T00:46:45.903Z,96967.22
2023-01-17T00:49:31.295Z,96974.84
2023-01-17T00:52:16.743Z,96967.94
2023-01-17T00:55:02.091Z,96941.88
2023-01-17T00:57:48.133Z,96958.41
2023-01-17T01:00:36.160Z,96968.91
2023-01-17T01:03:28.335Z,96964.66
2023-01-17T01:06:13.783Z,96993.28
2023-01-17T01:08:59.405Z,97007.72
2023-01-17T01:11:44.862Z,96997.38
2023-01-17T01:14:30.213Z,97005.25
2023-01-17T01:17:15.527Z,97013.16
2023-01-17T01:20:01.034Z,97028.78
2023-01-17T01:22:46.723Z,97030.34
2023-01-17T01:25:32.544Z,97030.34
2023-01-17T01:28:29.132Z,97032.84
2023-01-17T01:31:15.086Z,97034.53
2023-01-17T01:33:42.073Z,97013.59
2023-01-17T01:36:10.032Z,97042.47
2023-01-17T01:38:37.011Z,97035.34
2023-01-17T01:41:04.832Z,97040.47
2023-01-17T01:43:49.705Z,97036.28
2023-01-17T01:46:41.435Z,97043.34
2023-01-17T01:49:28.361Z,97066.13
2023-01-17T01:52:01.832Z,97078.22
2023-01-17T01:54:39.144Z,97100.72
2023-01-17T01:57:10.203Z,97111.16
2023-01-17T01:59:42.632Z,97115.47
2023-01-17T02:02:09.648Z,97115.50
2023-01-17T02:04:37.537Z,97135.53
2023-01-17T02:07:12.063Z,97131.28
2023-01-17T02:09:39.007Z,97153.00
2023-01-17T02:12:07.486Z,97166.06
2023-01-17T02:14:34.540Z,97183.50
2023-01-17T02:17:22.944Z,97185.41
2023-01-17T02:20:20.345Z,97205.53
2023-01-17T02:23:17.141Z,97197.78
2023-01-17T02:26:46.057Z,97210.84
2023-01-17T02:30:19.942Z,97223.09
2023-01-17T02:33:03.868Z,97254.41
2023-01-17T02:36:07.433Z,97244.00
2023-01-17T02:38:51.527Z,97238.72
2023-01-17T02:41:25.385Z,97254.47
2023-01-17T02:43:53.801Z,97260.63
2023-01-17T02:46:21.064Z,97260.59
2023-01-17T02:48:49.154Z,97255.41
2023-01-17T02:51:45.049Z,97258.09
2023-01-17T02:54:38.237Z,97266.78
2023-01-17T02:57:49.444Z,97266.00
2023-01-17T03:00:30.165Z,97266.88
2023-01-17T03:03:27.503Z,97272.88
2023-01-17T03:06:19.129Z,97264.91
2023-01-17T03:08:48.926Z,97262.31
2023-01-17T03:11:16.661Z,97264.84
2023-01-17T03:13:43.907Z,97258.75
2023-01-17T03:16:24.399Z,97253.47
2023-01-17T03:18:51.525Z,97246.50
2023-01-17T03:21:18.585Z,97233.53
2023-01-17T03:23:45.575Z,97232.59
2023-01-17T03:26:12.717Z,97236.09
2023-01-17T03:28:39.687Z,97227.38
2023-01-17T03:31:06.904Z,97229.97
2023-01-17T03:33:34.328Z,97237.78
2023-01-17T03:36:01.500Z,97236.13
2023-01-17T03:38:30.466Z,97235.22
2023-01-17T03:40:57.581Z,97229.03
2023-01-17T03:43:24.611Z,97222.00
2023-01-17T03:45:54.566Z,97215.03
2023-01-17T03:48:21.816Z,97209.72
2023-01-17T03:50:51.743Z,97201.00
2023-01-17T03:53:18.970Z,97199.25
2023-01-17T03:55:46.545Z,97194.91
2023-01-17T03:58:13.548Z,97192.38
2023-01-17T04:00:40.683Z,97194.84
2023-01-17T04:03:07.667Z,97178.31
2023-01-17T04:05:34.875Z,97172.22
2023-01-17T04:08:01.859Z,97160.78
2023-01-17T04:10:28.837Z,97149.50
2023-01-17T04:12:55.885Z,97154.81
2023-01-17T04:15:23.288Z,97147.06
2023-01-17T04:17:50.312Z,97154.03
2023-01-17T04:20:37.297Z,97143.53
2023-01-17T04:23:04.929Z,97121.00
2023-01-17T04:25:32.370Z,97116.81
2023-01-17T04:28:01.390Z,97102.13
2023-01-17T04:30:30.029Z,97099.53
2023-01-17T04:32:57.788Z,97095.34
2023-01-17T04:35:25.750Z,97099.78
2023-01-17T04:37:52.976Z,97110.19
2023-01-17T04:40:20.453Z,97119.59
2023-01-17T04:42:48.566Z,97112.50
2023-01-17T04:45:16.350Z,97087.31
2023-01-17T04:47:43.481Z,97080.41
2023-01-17T04:50:11.489Z,97085.69
2023-01-17T04:52:38.583Z,97092.66
2023-01-17T04:55:06.733Z,97092.75
2023-01-17T04:57:33.790Z,97087.56
2023-01-17T05:00:00.821Z,97097.91
2023-01-17T05:02:27.887Z,97086.75
2023-01-17T05:04:54.867Z,97088.50
2023-01-17T05:07:21.938Z,97090.22
2023-01-17T05:09:48.889Z,97096.38
2023-01-17T05:12:15.890Z,97094.75
2023-01-17T05:14:42.956Z,97108.56
2023-01-17T05:17:11.354Z,97120.72
2023-01-17T05:19:38.507Z,97127.69
2023-01-17T05:22:15.255Z,97147.72
2023-01-17T05:24:47.293Z,97173.72
2023-01-17T05:27:15.564Z,97158.16
2023-01-17T05:29:42.634Z,97172.91
2023-01-17T05:32:09.760Z,97180.88
2023-01-17T05:34:37.203Z,97197.47
2023-01-17T05:37:04.575Z,97209.56
2023-01-17T05:39:31.905Z,97218.19
2023-01-17T05:41:59.862Z,97222.53
2023-01-17T05:44:27.778Z,97225.09
2023-01-17T05:46:55.502Z,97219.88
2023-01-17T05:49:22.568Z,97217.31
2023-01-17T05:51:49.629Z,97219.91
2023-01-17T05:54:17.136Z,97226.88
2023-01-17T05:56:44.537Z,97220.81
2023-01-17T05:59:14.086Z,97228.63
2023-01-17T06:01:41.282Z,97223.47
2023-01-17T06:04:08.353Z,97239.13
2023-01-17T06:06:35.319Z,97245.25
2023-01-17T06:09:02.282Z,97238.38
2023-01-17T06:11:29.301Z,97247.03
2023-01-17T06:13:56.324Z,97254.81
2023-01-17T06:16:23.428Z,97254.84
2023-01-17T06:18:50.768Z,97252.22
2023-01-17T06:21:17.809Z,97251.34
2023-01-17T06:23:44.804Z,97248.75
2023-01-17T06:26:11.790Z,97260.06
2023-01-17T06:28:38.874Z,97248.81
2023-01-17T06:31:08.226Z,97254.03
2023-01-17T06:36:03.875Z,97258.38
2023-01-17T06:38:31.023Z,97262.72
2023-01-17T06:41:00.440Z,97266.25
2023-01-17T06:43:32.656Z,97269.63
2023-01-17T06:46:01.037Z,97272.28
2023-01-17T06:48:28.495Z,97282.72
2023-01-17T06:50:57.562Z,97287.06
2023-01-17T06:53:25.038Z,97291.41
2023-01-17T06:55:52.681Z,97286.19
2023-01-17T06:58:19.717Z,97290.53
2023-01-17T07:00:46.923Z,97290.56
2023-01-17T07:03:27.249Z,97286.25
2023-01-17T07:05:54.538Z,97289.72
2023-01-17T07:08:21.533Z,97292.31
2023-01-17T07:10:49.296Z,97290.59
2023-01-17T07:13:16.587Z,97293.25
2023-01-17T07:15:43.645Z,97295.88
2023-01-17T07:18:10.791Z,97297.59
2023-01-17T07:20:38.530Z,97291.50
2023-01-17T07:23:06.220Z,97290.63
2023-01-17T07:25:33.194Z,97294.97
2023-01-17T07:28:00.288Z,97291.53
2023-01-17T07:30:27.357Z,97292.38
2023-01-17T07:32:55.834Z,97289.81
2023-01-17T07:35:26.636Z,97291.53
2023-01-17T07:37:54.884Z,97286.31
2023-01-17T07:40:22.901Z,97286.31
2023-01-17T07:42:50.089Z,97282.88
2023-01-17T07:45:17.802Z,97281.16
2023-01-17T07:47:45.140Z,97279.41
2023-01-17T07:50:13.670Z,97285.50
2023-01-17T07:52:40.702Z,97274.25
2023-01-17T07:55:09.006Z,97275.97
2023-01-17T07:57:36.121Z,97279.44
2023-01-17T08:00:04.483Z,97273.34
2023-01-17T08:02:31.491Z,97267.22
2023-01-17T08:04:58.460Z,97254.22
2023-01-17T08:07:25.539Z,97254.22
2023-01-17T08:09:54.781Z,97247.28
2023-01-17T08:12:21.789Z,97234.31
2023-01-17T08:14:48.762Z,97240.41
2023-01-17T08:17:17.997Z,97241.31
2023-01-17T08:19:45.024Z,97236.94
2023-01-17T08:22:14.806Z,97235.22
2023-01-17T08:24:42.242Z,97243.03
2023-01-17T08:27:09.304Z,97236.94
2023-01-17T08:29:36.594Z,97239.53
2023-01-17T08:32:04.253Z,97241.25
2023-01-17T08:34:33.549Z,97239.50
2023-01-17T08:37:00.499Z,97238.59
2023-01-17T08:39:27.785Z,97238.59
2023-01-17T08:41:54.851Z,97238.59
2023-01-17T08:44:22.087Z,97237.69
2023-01-17T08:46:50.366Z,97239.38
2023-01-17T08:49:17.419Z,97249.78
2023-01-17T08:51:44.356Z,97243.72
2023-01-17T08:54:13.070Z,97251.47
2023-01-17T08:56:40.107Z,97247.97
2023-01-17T08:59:07.431Z,97258.38
2023-01-17T09:01:40.814Z,97259.19
2023-01-17T09:04:15.054Z,97268.72
2023-01-17T09:06:48.609Z,97269.59
2023-01-17T09:09:18.755Z,97284.28
2023-01-17T09:11:45.822Z,97297.28
2023-01-17T09:14:13.686Z,97286.91
2023-01-17T09:16:40.691Z,97298.97
2023-01-17T09:19:07.734Z,97305.88
2023-01-17T09:21:34.713Z,97309.28
2023-01-17T09:24:01.768Z,97304.94
2023-01-17T09:26:30.412Z,97301.47
2023-01-17T09:28:58.831Z,97305.72
2023-01-17T09:31:29.732Z,97312.56
2023-01-17T09:33:58.807Z,97308.16
2023-01-17T09:36:28.888Z,97306.44
2023-01-17T09:38:58.025Z,97309.81
2023-01-17T09:41:32.930Z,97305.41
2023-01-17T09:44:29.979Z,97298.34
2023-01-17T09:47:31.739Z,97319.03
2023-01-17T09:50:32.136Z,97326.81
2023-01-17T09:53:16.165Z,97318.16
2023-01-17T09:56:06.916Z,97330.25
2023-01-17T09:59:05.707Z,97347.53
2023-01-17T10:02:26.852Z,97364.91
2023-01-17T10:05:16.366Z,97360.47
2023-01-17T10:08:07.297Z,97354.41
2023-01-17T10:10:43.978Z,97355.22
2023-01-17T10:14:04.241Z,97342.97
2023-01-17T10:16:59.061Z,97344.56
2023-01-17T10:19:50.174Z,97345.31
2023-01-17T10:22:46.484Z,97321.06
2023-01-17T10:25:43.087Z,97335.56
2023-01-17T10:28:22.754Z,97332.13
2023-01-17T10:30:52.694Z,97320.03
2023-01-17T10:33:36.412Z,97323.31
2023-01-17T10:36:21.393Z,97335.28
2023-01-17T10:38:54.632Z,97314.44
2023-01-17T10:41:38.439Z,97295.28
2023-01-17T10:44:19.022Z,97291.81
2023-01-17T10:46:55.423Z,97303.69
2023-01-17T10:49:25.398Z,97276.84
2023-01-17T10:52:03.343Z,97263.88
2023-01-17T10:54:53.984Z,97262.91
2023-01-17T10:57:24.941Z,97265.47
2023-01-17T10:59:53.560Z,97282.81
2023-01-17T11:02:31.975Z,97285.72
2023-01-17T11:05:05.696Z,97304.75
2023-01-17T11:07:32.878Z,97287.47
2023-01-17T11:10:00.003Z,97282.22
2023-01-17T11:12:44.282Z,97313.22
2023-01-17T11:15:11.242Z,97299.22
2023-01-17T11:18:01.774Z,97269.78
2023-01-17T11:20:36.426Z,97271.38
2023-01-17T11:23:14.699Z,97264.38
2023-01-17T11:25:51.508Z,97292.44
2023-01-17T11:28:30.711Z,97280.13
2023-01-17T11:31:07.985Z,97243.69
2023-01-17T11:33:48.136Z,97241.59
2023-01-17T11:36:19.174Z,97212.09
2023-01-17T11:39:06.819Z,97187.50
2023-01-17T11:41:40.388Z,97174.47
2023-01-17T11:44:28.955Z,97205.13
2023-01-17T11:47:14.017Z,97222.16
2023-01-17T11:49:44.867Z,97164.34
2023-01-17T11:52:26.304Z,97157.38
2023-01-17T11:54:55.680Z,97151.28
2023-01-17T11:57:34.318Z,97122.47
2023-01-17T12:00:23.215Z,97065.38
2023-01-17T12:03:28.858Z,97033.06
2023-01-17T12:06:28.930Z,97021.88
2023-01-17T12:09:47.593Z,97017.44
2023-01-17T12:13:22.568Z,97021.72
2023-01-17T12:16:42.559Z,97021.75
2023-01-17T12:20:01.088Z,97065.00
2023-01-17T12:23:14.040Z,97042.69
2023-01-17T12:26:38.385Z,97052.13
2023-01-17T12:29:23.208Z,97066.47
2023-01-17T12:32:08.967Z,97013.75
2023-01-17T12:34:42.163Z,97003.09
2023-01-17T12:37:24.745Z,96947.56
2023-01-17T12:40:18.993Z,96940.41
2023-01-17T12:43:15.817Z,96939.84
2023-01-17T12:45:50.744Z,96898.06
2023-01-17T12:48:20.480Z,96905.47
2023-01-17T12:51:21.725Z,96925.09
2023-01-17T12:54:09.512Z,96894.53
2023-01-17T12:56:53.238Z,96865.13
2023-01-17T13:00:00.137Z,96855.38
2023-01-17T13:02:49.026Z,96846.53
2023-01-17T13:05:26.187Z,96826.47
2023-01-17T13:08:29.885Z,96806.97
2023-01-17T13:11:06.636Z,96776.22
2023-01-17T13:13:36.261Z,96744.00
2023-01-17T13:16:32.411Z,96700.41
2023-01-17T13:19:33.340Z,96689.38
2023-01-17T13:22:03.415Z,96699.22
2023-01-17T13:24:46.010Z,96712.13
2023-01-17T13:27:22.682Z,96691.50
2023-01-17T13:30:16.221Z,96703.59
2023-01-17T13:33:12.315Z,96718.19
2023-01-17T13:36:28.553Z,96706.97
2023-01-17T13:39:12.885Z,96680.25
2023-01-17T13:42:14.151Z,96673.44
2023-01-17T13:44:41.497Z,96630.97
2023-01-17T13:47:17.244Z,96637.09
2023-01-17T13:49:51.618Z,96649.28
2023-01-17T13:52:23.139Z,96630.25
2023-01-17T13:55:01.181Z,96608.69
2023-01-17T13:57:30.346Z,96609.50
2023-01-17T14:00:27.206Z,96644.91
2023-01-17T14:02:55.631Z,96631.38
2023-01-17T14:05:56.748Z,96630.44
2023-01-17T14:08:26.731Z,96595.78
2023-01-17T14:11:06.047Z,96609.72
2023-01-17T14:13:38.555Z,96594.19
2023-01-17T14:16:28.056Z,96585.75
2023-01-17T14:18:56.182Z,96597.00
2023-01-17T14:21:33.879Z,96617.69
2023-01-17T14:24:16.765Z,96622.25
2023-01-17T14:26:59.082Z,96588.50
2023-01-17T14:29:57.808Z,96565.94
2023-01-17T14:32:33.748Z,96549.41
2023-01-17T14:35:00.989Z,96560.75
2023-01-17T14:37:44.355Z,96541.06
2023-01-17T14:40:26.494Z,96563.66
2023-01-17T14:43:14.477Z,96553.31
2023-01-17T14:45:43.189Z,96533.28
2023-01-17T14:48:20.874Z,96540.97
2023-01-17T14:50:55.133Z,96546.47
2023-01-17T14:53:31.599Z,96536.03
2023-01-17T14:56:15.042Z,96522.28
2023-01-17T14:58:42.307Z,96544.25
2023-01-17T15:01:21.985Z,96560.94
2023-01-17T15:03:58.233Z,96562.75
2023-01-17T15:06:41.097Z,96586.25
2023-01-17T15:09:23.070Z,96606.25
2023-01-17T15:11:52.584Z,96619.69
2023-01-17T15:14:29.283Z,96650.94
2023-01-17T15:16:56.754Z,96701.97
2023-01-17T15:19:24.213Z,96657.28
2023-01-17T15:21:54.129Z,96658.47
2023-01-17T15:24:28.899Z,96685.44
2023-01-17T15:26:56.774Z,96661.09
2023-01-17T15:29:35.521Z,96654.19
2023-01-17T15:32:06.547Z,96646.50
2023-01-17T15:35:00.233Z,96670.03
2023-01-17T15:37:35.702Z,96664.13
2023-01-17T15:40:17.188Z,96666.06
2023-01-17T15:42:48.131Z,96670.59
2023-01-17T15:45:22.293Z,96684.66
2023-01-17T15:47:49.725Z,96697.59
2023-01-17T15:50:28.021Z,96673.19
2023-01-17T15:53:13.209Z,96660.19
2023-01-17T15:55:40.635Z,96653.28
2023-01-17T15:58:27.844Z,96662.31
2023-01-17T16:00:55.685Z,96665.94
2023-01-17T16:03:31.177Z,96672.81
2023-01-17T16:06:01.259Z,96674.66
2023-01-17T16:08:39.973Z,96688.63
2023-01-17T16:11:08.887Z,96679.28
2023-01-17T16:13:39.216Z,96641.66
2023-01-17T16:16:25.907Z,96641.84
2023-01-17T16:19:00.992Z,96654.97
2023-01-17T16:21:32.451Z,96667.09
2023-01-17T16:24:00.752Z,96664.59
2023-01-17T16:26:29.327Z,96666.38
2023-01-17T16:28:56.627Z,96675.16
2023-01-17T16:31:23.690Z,96661.38
2023-01-17T16:33:51.857Z,96670.03
2023-01-17T16:36:21.107Z,96685.66
2023-01-17T16:38:51.188Z,96691.69
2023-01-17T16:41:19.383Z,96678.75
2023-01-17T16:43:48.500Z,96651.19
2023-01-17T16:46:18.186Z,96654.63
2023-01-17T16:48:45.381Z,96635.63
2023-01-17T16:51:13.363Z,96633.06
2023-01-17T16:53:40.327Z,96637.38
2023-01-17T16:56:13.792Z,96626.16
2023-01-17T16:58:41.821Z,96618.31
2023-01-17T17:01:17.008Z,96626.13
2023-01-17T17:03:44.562Z,96615.78
2023-01-17T17:06:12.631Z,96604.66
2023-01-17T17:08:40.062Z,96606.44
2023-01-17T17:11:19.881Z,96605.56
2023-01-17T17:13:49.361Z,96615.28
2023-01-17T17:16:20.954Z,96634.38
2023-01-17T17:19:05.420Z,96639.75
2023-01-17T17:21:34.452Z,96644.19
2023-01-17T17:24:02.064Z,96652.91
2023-01-17T17:26:34.678Z,96664.28
2023-01-17T17:29:03.056Z,96672.19
2023-01-17T17:31:30.213Z,96688.63
2023-01-17T17:34:01.695Z,96692.22
2023-01-17T17:36:29.390Z,96709.50
2023-01-17T17:38:58.465Z,96722.50
2023-01-17T17:41:34.223Z,96724.41
2023-01-17T17:44:03.697Z,96733.91
2023-01-17T17:46:32.104Z,96728.84
2023-01-17T17:49:00.340Z,96739.25
2023-01-17T17:51:30.118Z,96751.28
2023-01-17T17:54:01.953Z,96748.78
2023-01-17T17:56:30.648Z,96750.56
2023-01-17T17:58:59.503Z,96748.84
2023-01-17T18:01:27.407Z,96760.16
2023-01-17T18:03:57.894Z,96767.09
2023-01-17T18:06:25.004Z,96764.47
2023-01-17T18:08:52.374Z,96776.72
2023-01-17T18:11:26.228Z,96764.66
2023-01-17T18:13:55.400Z,96783.69
2023-01-17T18:16:35.616Z,96779.44
2023-01-17T18:19:04.597Z,96780.38
2023-01-17T18:21:37.691Z,96781.25
2023-01-17T18:24:07.366Z,96784.75
2023-01-17T18:26:37.885Z,96788.22
2023-01-17T18:29:08.139Z,96790.00
2023-01-17T18:31:35.728Z,96798.63
2023-01-17T18:34:09.512Z,96790.94
2023-01-17T18:36:37.160Z,96788.31
2023-01-17T18:39:19.644Z,96785.69
2023-01-17T18:41:46.973Z,96787.44
2023-01-17T18:44:16.888Z,96777.00
2023-01-17T18:46:44.029Z,96776.13
2023-01-17T18:49:12.313Z,96760.50
2023-01-17T18:51:39.981Z,96759.63
2023-01-17T18:54:08.959Z,96759.59
2023-01-17T18:56:36.182Z,96754.34
2023-01-17T18:59:06.290Z,96754.28
2023-01-17T19:01:36.145Z,96750.75
2023-01-17T19:04:05.676Z,96735.97
2023-01-17T19:06:39.283Z,96737.66
2023-01-17T19:09:08.416Z,96733.31
2023-01-17T19:11:36.930Z,96727.22
2023-01-17T19:14:05.112Z,96729.84
2023-01-17T19:16:36.612Z,96719.41
2023-01-17T19:19:07.976Z,96723.75
2023-01-17T19:21:35.463Z,96721.97
2023-01-17T19:24:03.696Z,96729.75
2023-01-17T19:26:30.872Z,96725.44
2023-01-17T19:29:03.800Z,96721.25
2023-01-17T19:31:32.849Z,96729.88
2023-01-17T19:34:01.165Z,96719.44
2023-01-17T19:36:33.924Z,96719.38
2023-01-17T19:39:05.573Z,96718.47
2023-01-17T19:41:36.148Z,96719.34
2023-01-17T19:44:09.123Z,96714.13
2023-01-17T19:46:37.170Z,96707.31
2023-01-17T19:49:19.892Z,96713.38
2023-01-17T19:51:47.020Z,96717.78
2023-01-17T19:54:15.233Z,96720.41
2023-01-17T19:56:42.297Z,96722.16
2023-01-17T19:59:09.551Z,96727.41
2023-01-17T20:01:36.890Z,96737.78
2023-01-17T20:04:04.498Z,96735.19
2023-01-17T20:06:35.991Z,96730.94
2023-01-17T20:09:04.901Z,96732.66
2023-01-17T20:11:32.166Z,96744.78
2023-01-17T20:14:00.491Z,96740.38
2023-01-17T20:16:30.812Z,96730.84
2023-01-17T20:19:02.985Z,96733.50
2023-01-17T20:21:32.262Z,96734.31
2023-01-17T20:24:03.629Z,96731.72
2023-01-17T20:26:36.737Z,96723.06
2023-01-17T20:29:12.300Z,96723.06
2023-01-17T20:31:41.765Z,96717.88
2023-01-17T20:34:11.652Z,96718.72
2023-01-17T20:36:41.692Z,96714.41
2023-01-17T20:39:11.110Z,96710.88
2023-01-17T20:41:41.310Z,96710.06
2023-01-17T20:44:13.956Z,96711.84
2023-01-17T20:46:41.774Z,96717.97
2023-01-17T20:49:16.767Z,96720.56
2023-01-17T20:51:45.313Z,96720.63
2023-01-17T20:54:16.927Z,96723.19
2023-01-17T20:56:47.346Z,96725.84
2023-01-17T20:59:18.110Z,96738.00
2023-01-17T21:01:45.568Z,96733.63
2023-01-17T21:04:13.241Z,96733.69
2023-01-17T21:06:41.632Z,96740.63
2023-01-17T21:09:13.203Z,96745.84
2023-01-17T21:11:40.274Z,96749.34
2023-01-17T21:14:07.330Z,96757.19
2023-01-17T21:16:35.645Z,96766.72
2023-01-17T21:19:03.755Z,96759.78
2023-01-17T21:21:30.985Z,96758.09
2023-01-17T21:23:59.910Z,96762.47
2023-01-17T21:26:29.047Z,96772.84
2023-01-17T21:28:58.317Z,96782.50
2023-01-17T21:31:34.861Z,96794.69
2023-01-17T21:34:08.300Z,96806.00
2023-01-17T21:36:41.464Z,96823.25
2023-01-17T21:39:18.253Z,96817.97
2023-01-17T21:41:48.260Z,96819.78
2023-01-17T21:44:19.890Z,96818.09
2023-01-17T21:46:47.689Z,96821.56
2023-01-17T21:49:15.353Z,96831.97
2023-01-17T21:51:52.787Z,96834.56
2023-01-17T21:54:44.551Z,96833.69
2023-01-17T21:57:33.475Z,96852.75
2023-01-17T22:00:00.675Z,96850.09
2023-01-17T22:02:27.678Z,96851.88
2023-01-17T22:04:56.146Z,96843.19
2023-01-17T22:07:24.788Z,96850.13
2023-01-17T22:09:51.762Z,96842.38
2023-01-17T22:12:19.144Z,96843.19
2023-01-17T22:14:46.227Z,96850.97
2023-01-17T22:17:13.180Z,96858.81
2023-01-17T22:19:40.205Z,96864.91
2023-01-17T22:22:07.269Z,96871.88
2023-01-17T22:24:34.358Z,96872.72
2023-01-17T22:27:01.328Z,96872.72
2023-01-17T22:29:28.330Z,96872.72
2023-01-17T22:31:55.508Z,96881.38
2023-01-17T22:34:22.999Z,96871.00
2023-01-17T22:36:50.041Z,96873.63
2023-01-17T22:39:17.124Z,96872.78
2023-01-17T22:41:44.131Z,96866.69
2023-01-17T22:44:11.317Z,96863.28
2023-01-17T22:46:39.310Z,96868.44
2023-01-17T22:49:08.520Z,96855.47
2023-01-17T22:51:36.093Z,96850.22
2023-01-17T22:54:03.248Z,96852.88
2023-01-17T22:56:33.035Z,96836.44
2023-01-17T22:59:01.553Z,96837.25
2023-01-17T23:01:32.642Z,96834.72
2023-01-17T23:04:02.708Z,96838.19
2023-01-17T23:06:35.851Z,96837.34
2023-01-17T23:09:10.670Z,96841.63
2023-01-17T23:11:43.523Z,96840.00
2023-01-17T23:14:29.931Z,96852.09
2023-01-17T23:17:18.921Z,96853.78
2023-01-17T23:19:54.745Z,96861.59
2023-01-17T23:22:24.007Z,96862.47
2023-01-17T23:24:52.267Z,96857.31
2023-01-17T23:28:02.138Z,96858.19
2023-01-17T23:30:36.711Z,96842.66
2023-01-17T23:33:06.753Z,96850.44
2023-01-17T23:35:41.567Z,96856.47
2023-01-17T23:38:34.072Z,96855.59
2023-01-17T23:41:26.534Z,96850.41
2023-01-17T23:43:56.196Z,96851.31
2023-01-17T23:46:25.461Z,96853.84
2023-01-17T23:48:53.500Z,96846.91
2023-01-17T23:51:20.551Z,96839.16
2023-01-17T23:53:47.678Z,96844.28
2023-01-17T23:56:21.995Z,96833.09
2023-01-17T23:58:49.450Z,96828.84
